Time;durP1;ratioP1;P1;durP2;ratioP2;P2;SDS_P1;SDS_P2;PMS_P1;PMS_P2;Temp;Humidity;BMP_temperature;BMP_pressure;BME280_temperature;BME280_humidity;BME280_pressure;Samples;Min_cycle;Max_cycle;Signal;HPM_P1;HPM_P2
2022/06/05 00:02:51;;;;;;;0.60;0.40;;;11.30;99.90;;;;;;5051391;28;20017;-79
2022/06/05 00:05:24;;;;;;;1.33;0.40;;;11.30;99.90;;;;;;5049612;28;20540;-72
2022/06/05 00:08:07;;;;;;;0.63;0.40;;;11.40;99.90;;;;;;5051441;28;20033;-79
2022/06/05 00:11:05;;;;;;;1.98;0.90;;;11.40;99.90;;;;;;5054881;28;20021;-73
2022/06/05 00:13:35;;;;;;;0.88;0.52;;;11.50;99.90;;;;;;5054743;28;20380;-72
2022/06/05 00:16:03;;;;;;;1.05;0.60;;;11.60;99.90;;;;;;5054537;28;20032;-78
2022/06/05 00:18:34;;;;;;;3.80;0.73;;;11.70;99.90;;;;;;5053361;28;20385;-72
2022/06/05 00:21:03;;;;;;;1.60;0.35;;;11.70;99.90;;;;;;5054646;28;20112;-74
2022/06/05 00:23:30;;;;;;;1.40;0.50;;;11.80;99.90;;;;;;5054462;28;20033;-72
2022/06/05 00:26:04;;;;;;;1.00;0.57;;;11.80;99.90;;;;;;5053611;28;20501;-72
2022/06/05 00:28:57;;;;;;;0.98;0.47;;;11.90;99.90;;;;;;5053003;28;20029;-72
2022/06/05 00:31:36;;;;;;;1.17;0.30;;;11.90;99.90;;;;;;5051698;28;20378;-78
2022/06/05 00:34:04;;;;;;;1.63;0.60;;;11.90;99.90;;;;;;5051736;28;20032;-72
2022/06/05 00:36:46;;;;;;;1.75;0.73;;;11.90;99.90;;;;;;5053045;28;20036;-72
2022/06/05 00:39:43;;;;;;;0.80;0.52;;;11.90;99.90;;;;;;5052934;28;20412;-76
2022/06/05 00:42:13;;;;;;;3.53;0.50;;;11.90;99.90;;;;;;5052391;28;20045;-73
2022/06/05 00:44:50;;;;;;;1.65;0.93;;;12.00;99.90;;;;;;5050696;28;20033;-75
2022/06/05 00:47:22;;;;;;;0.80;0.52;;;12.00;99.90;;;;;;5052976;28;20025;-72
2022/06/05 00:49:59;;;;;;;1.33;0.40;;;12.00;99.90;;;;;;5051834;28;20048;-73
2022/06/05 00:52:30;;;;;;;0.98;0.47;;;12.00;99.90;;;;;;5052025;28;20044;-77
2022/06/05 00:54:57;;;;;;;1.73;0.22;;;12.00;99.90;;;;;;5052842;28;20100;-77
2022/06/05 00:57:29;;;;;;;0.60;0.43;;;12.00;99.90;;;;;;5052886;28;20024;-77
2022/06/05 00:59:57;;;;;;;0.40;0.40;;;12.00;99.90;;;;;;5052685;28;20021;-77
2022/06/05 01:02:25;;;;;;;2.78;0.50;;;12.00;99.90;;;;;;5052691;28;20481;-76
2022/06/05 01:04:53;;;;;;;0.75;0.55;;;12.10;99.90;;;;;;5053107;28;20033;-74
2022/06/05 01:07:22;;;;;;;0.60;0.60;;;12.10;99.90;;;;;;5057676;28;20013;-75
2022/06/05 01:09:50;;;;;;;1.27;0.60;;;12.10;99.90;;;;;;5053301;28;20430;-72
2022/06/05 01:12:35;;;;;;;0.80;0.40;;;12.20;99.90;;;;;;5052876;28;20017;-78
2022/06/05 01:15:10;;;;;;;1.45;0.55;;;12.20;99.90;;;;;;5051172;28;20109;-73
2022/06/05 01:17:49;;;;;;;0.68;0.47;;;12.20;99.90;;;;;;5052934;28;20025;-77
2022/06/05 01:20:46;;;;;;;2.22;0.57;;;12.30;99.90;;;;;;5052967;28;20071;-76
2022/06/05 01:23:42;;;;;;;1.05;0.50;;;12.40;99.90;;;;;;5051614;28;20040;-77
2022/06/05 01:26:20;;;;;;;1.08;0.50;;;12.50;99.90;;;;;;5051262;28;20041;-76
2022/06/05 01:29:33;;;;;;;3.22;0.88;;;12.50;99.90;;;;;;5051671;28;20023;-71
2022/06/05 01:32:07;;;;;;;1.00;0.47;;;12.50;99.90;;;;;;5049295;28;20033;-71
2022/06/05 01:34:36;;;;;;;1.67;0.30;;;12.60;99.90;;;;;;5051810;28;20025;-71
2022/06/05 01:37:27;;;;;;;0.47;0.40;;;12.60;99.90;;;;;;5051948;28;20517;-72
2022/06/05 01:40:34;;;;;;;1.05;0.30;;;12.60;99.90;;;;;;5051398;28;20032;-72
2022/06/05 01:43:09;;;;;;;1.15;0.40;;;12.50;99.90;;;;;;5050762;28;20048;-76
2022/06/05 01:45:51;;;;;;;1.73;0.60;;;12.50;99.90;;;;;;5051972;28;20535;-72
2022/06/05 01:48:36;;;;;;;0.77;0.40;;;12.60;99.90;;;;;;5052117;28;20013;-73
2022/06/05 01:51:08;;;;;;;1.00;0.57;;;12.60;99.90;;;;;;5052437;28;20025;-71
2022/06/05 01:53:45;;;;;;;1.98;0.40;;;12.70;99.90;;;;;;5051886;28;20062;-72
2022/06/05 01:56:19;;;;;;;1.27;0.80;;;12.80;99.90;;;;;;5052363;28;20036;-72
2022/06/05 01:59:09;;;;;;;0.32;0.22;;;12.80;99.90;;;;;;5051040;28;20017;-76
2022/06/05 02:01:41;;;;;;;0.52;0.40;;;12.90;99.90;;;;;;5051333;28;20037;-72
2022/06/05 02:04:29;;;;;;;0.50;0.30;;;13.10;99.90;;;;;;5050713;28;20094;-75
2022/06/05 02:07:09;;;;;;;1.13;0.40;;;13.10;99.90;;;;;;5051172;28;20390;-77
2022/06/05 02:09:56;;;;;;;1.00;0.63;;;13.20;99.90;;;;;;5051000;28;20086;-71
2022/06/05 02:12:24;;;;;;;0.35;0.20;;;13.20;99.90;;;;;;5051220;28;20056;-75
2022/06/05 02:14:51;;;;;;;1.33;0.40;;;13.30;99.90;;;;;;5051102;28;20406;-78
2022/06/05 02:17:19;;;;;;;1.02;0.30;;;13.30;99.90;;;;;;5050285;28;20107;-76
2022/06/05 02:19:47;;;;;;;4.20;0.40;;;13.40;99.90;;;;;;5052243;28;20053;-77
2022/06/05 02:22:35;;;;;;;0.68;0.30;;;13.50;99.90;;;;;;5051028;28;20520;-76
2022/06/05 02:25:03;;;;;;;0.47;0.30;;;13.60;99.90;;;;;;5050125;28;20032;-71
2022/06/05 02:27:31;;;;;;;1.88;0.40;;;13.60;99.90;;;;;;5052105;28;20393;-77
2022/06/05 02:29:59;;;;;;;0.40;0.30;;;13.60;99.90;;;;;;5052082;28;20029;-72
2022/06/05 02:32:39;;;;;;;1.15;0.40;;;13.60;99.90;;;;;;5050940;28;20086;-76
2022/06/05 02:35:06;;;;;;;0.50;0.38;;;13.60;99.90;;;;;;5050115;28;20032;-71
2022/06/05 02:38:02;;;;;;;0.35;0.30;;;13.50;99.90;;;;;;5051878;28;20071;-71
2022/06/05 02:40:35;;;;;;;0.88;0.30;;;13.40;99.90;;;;;;5049471;28;20369;-70
2022/06/05 02:43:08;;;;;;;0.75;0.25;;;13.30;99.90;;;;;;5048135;28;20040;-71
2022/06/05 02:45:51;;;;;;;1.70;0.35;;;13.30;99.90;;;;;;5050196;28;20096;-71
2022/06/05 02:48:46;;;;;;;0.30;0.20;;;13.30;99.90;;;;;;5050257;28;20059;-71
2022/06/05 02:51:33;;;;;;;0.40;0.30;;;13.30;99.90;;;;;;5048898;28;20075;-72
2022/06/05 02:54:01;;;;;;;1.08;0.40;;;13.30;99.90;;;;;;5055250;28;20013;-70
2022/06/05 02:56:31;;;;;;;5.88;0.35;;;13.30;99.90;;;;;;5056356;28;20035;-72
2022/06/05 02:59:03;;;;;;;2.42;0.35;;;13.30;99.90;;;;;;5056290;28;20029;-76
2022/06/05 03:04:16;;;;;;;0.63;0.52;;;13.30;99.90;;;;;;5056088;28;20091;-76
2022/06/05 03:06:43;;;;;;;2.22;0.57;;;13.30;99.90;;;;;;5056291;28;20033;-70
2022/06/05 03:09:12;;;;;;;1.20;0.40;;;13.30;99.90;;;;;;5056222;28;20040;-72
2022/06/05 03:11:39;;;;;;;4.43;0.30;;;13.40;99.90;;;;;;5055802;28;20100;-71
2022/06/05 03:14:06;;;;;;;0.50;0.35;;;13.40;99.90;;;;;;5055921;28;20466;-76
2022/06/05 03:16:34;;;;;;;0.70;0.30;;;13.40;99.90;;;;;;5056069;28;20029;-71
2022/06/05 03:19:02;;;;;;;1.00;0.40;;;13.40;99.90;;;;;;5055384;28;20060;-70
2022/06/05 03:21:37;;;;;;;0.65;0.38;;;13.40;99.90;;;;;;5055381;28;20021;-76
2022/06/05 03:24:06;;;;;;;0.57;0.45;;;13.50;99.90;;;;;;5055254;28;20036;-70
2022/06/05 03:26:34;;;;;;;0.40;0.40;;;13.50;99.90;;;;;;5052982;28;20400;-70
2022/06/05 03:29:02;;;;;;;1.17;0.40;;;13.50;99.90;;;;;;5055342;28;20028;-77
2022/06/05 03:31:30;;;;;;;0.40;0.32;;;13.50;99.90;;;;;;5055034;28;20025;-70
2022/06/05 03:33:57;;;;;;;0.30;0.30;;;13.60;99.90;;;;;;5055110;28;20033;-70
2022/06/05 03:36:25;;;;;;;0.55;0.30;;;13.60;99.90;;;;;;5054844;28;20495;-76
2022/06/05 03:38:53;;;;;;;0.22;0.22;;;13.60;99.90;;;;;;5052457;28;20124;-76
2022/06/05 03:41:20;;;;;;;0.40;0.22;;;13.70;99.90;;;;;;5055143;28;20021;-71
2022/06/05 03:43:48;;;;;;;1.10;0.40;;;13.80;99.90;;;;;;5055004;28;20045;-71
2022/06/05 03:46:16;;;;;;;0.82;0.28;;;13.80;99.90;;;;;;5054902;28;20043;-76
2022/06/05 03:48:44;;;;;;;0.80;0.50;;;13.90;99.90;;;;;;5054901;28;20028;-76
2022/06/05 03:51:15;;;;;;;0.47;0.32;;;13.90;99.90;;;;;;5054739;28;20473;-70
2022/06/05 03:53:43;;;;;;;0.43;0.20;;;13.80;99.90;;;;;;5054878;28;20039;-71
2022/06/05 03:56:12;;;;;;;0.45;0.30;;;13.80;99.90;;;;;;5054576;28;20067;-71
2022/06/05 03:58:40;;;;;;;0.63;0.30;;;13.80;99.90;;;;;;5054763;28;20021;-71
2022/06/05 04:01:11;;;;;;;0.77;0.43;;;13.80;99.90;;;;;;5054671;28;20401;-70
2022/06/05 04:03:39;;;;;;;1.02;0.30;;;13.90;99.90;;;;;;5054292;28;20035;-71
2022/06/05 04:06:08;;;;;;;1.13;0.40;;;13.90;99.90;;;;;;5054704;28;20044;-71
2022/06/05 04:08:37;;;;;;;0.95;0.40;;;14.00;99.90;;;;;;5052297;28;20082;-71
2022/06/05 04:11:10;;;;;;;0.40;0.30;;;14.00;99.90;;;;;;5054536;28;20100;-70
2022/06/05 04:13:37;;;;;;;0.63;0.40;;;14.00;99.90;;;;;;5052591;28;20478;-71
2022/06/05 04:16:12;;;;;;;1.48;0.45;;;14.00;99.90;;;;;;5054227;28;20036;-70
2022/06/05 04:18:40;;;;;;;0.30;0.30;;;14.10;99.90;;;;;;5052802;28;20025;-72
2022/06/05 04:21:12;;;;;;;1.02;0.50;;;14.10;99.90;;;;;;5054416;28;20079;-73
2022/06/05 04:23:40;;;;;;;0.35;0.30;;;14.10;99.90;;;;;;5054125;28;20029;-73
2022/06/05 04:26:14;;;;;;;0.28;0.20;;;14.00;99.90;;;;;;5054047;28;20075;-70
2022/06/05 04:28:42;;;;;;;2.28;0.35;;;14.00;99.90;;;;;;5054609;28;20021;-76
2022/06/05 04:31:44;;;;;;;0.47;0.30;;;13.90;99.90;;;;;;5054019;28;20017;-70
2022/06/05 04:34:15;;;;;;;1.02;0.28;;;13.80;99.90;;;;;;5049869;28;20429;-76
2022/06/05 04:36:43;;;;;;;0.38;0.30;;;13.70;99.90;;;;;;5053833;28;20032;-75
2022/06/05 04:39:11;;;;;;;0.63;0.30;;;13.60;99.90;;;;;;5054025;28;20025;-70
2022/06/05 04:41:40;;;;;;;2.20;0.30;;;13.50;99.90;;;;;;5053794;28;20021;-70
2022/06/05 04:44:11;;;;;;;1.13;0.20;;;13.40;99.90;;;;;;5053596;28;20089;-75
2022/06/05 04:46:38;;;;;;;0.70;0.38;;;13.40;99.90;;;;;;5052554;28;20490;-70
2022/06/05 04:49:08;;;;;;;0.30;0.25;;;13.40;99.90;;;;;;5053878;28;20036;-74
2022/06/05 04:51:37;;;;;;;0.38;0.22;;;13.30;99.90;;;;;;5049240;28;20040;-74
2022/06/05 04:54:06;;;;;;;0.32;0.30;;;13.30;99.90;;;;;;5051342;28;20381;-77
2022/06/05 04:56:33;;;;;;;4.53;0.60;;;13.30;99.90;;;;;;5051239;28;20025;-72
2022/06/05 04:59:01;;;;;;;0.65;0.45;;;13.20;99.90;;;;;;5051647;28;20020;-76
2022/06/05 05:01:31;;;;;;;15.90;0.55;;;13.20;99.90;;;;;;5049790;28;20078;-71
2022/06/05 05:04:01;;;;;;;4.35;0.47;;;13.20;99.90;;;;;;5050475;28;20079;-71
2022/06/05 05:06:30;;;;;;;0.88;0.20;;;13.20;99.90;;;;;;5051092;28;20025;-71
2022/06/05 05:08:58;;;;;;;0.57;0.38;;;13.20;99.90;;;;;;5051725;28;20102;-72
2022/06/05 05:11:27;;;;;;;0.30;0.30;;;13.10;99.90;;;;;;5051243;28;20025;-72
2022/06/05 05:13:55;;;;;;;4.88;0.40;;;13.10;99.90;;;;;;5050750;28;20032;-75
2022/06/05 05:16:23;;;;;;;1.65;0.52;;;13.10;99.90;;;;;;5051290;28;20111;-69
2022/06/05 05:18:51;;;;;;;0.52;0.38;;;13.10;99.90;;;;;;5051208;28;20049;-70
2022/06/05 05:21:20;;;;;;;0.20;0.20;;;13.10;99.90;;;;;;5049867;28;20078;-73
2022/06/05 05:23:49;;;;;;;0.88;0.40;;;13.10;99.90;;;;;;5051563;28;20151;-71
2022/06/05 05:26:22;;;;;;;2.28;0.30;;;13.00;99.90;;;;;;5051561;28;20013;-76
2022/06/05 05:28:50;;;;;;;0.30;0.30;;;13.00;99.90;;;;;;5050089;28;20031;-71
2022/06/05 05:31:24;;;;;;;0.40;0.30;;;13.00;99.90;;;;;;5048265;28;20013;-71
2022/06/05 05:33:52;;;;;;;0.80;0.40;;;13.00;99.90;;;;;;5050692;28;20115;-71
2022/06/05 05:36:21;;;;;;;0.95;0.30;;;13.00;99.90;;;;;;5049198;28;20028;-71
2022/06/05 05:44:21;;;;;;;;;;;12.90;99.90;;;;;;5047015;28;20037;-70
2022/06/05 05:46:49;;;;;;;0.28;0.20;;;12.90;99.90;;;;;;5049335;28;19999;-74
2022/06/05 05:49:16;;;;;;;0.45;0.30;;;12.90;99.90;;;;;;5048638;28;20021;-72
2022/06/05 05:51:44;;;;;;;0.50;0.30;;;12.90;99.90;;;;;;5050701;28;20017;-73
2022/06/05 05:54:12;;;;;;;0.28;0.28;;;12.80;99.90;;;;;;5051233;28;20372;-72
2022/06/05 05:56:40;;;;;;;0.50;0.20;;;12.80;99.90;;;;;;5050847;28;20420;-70
2022/06/05 05:59:08;;;;;;;0.20;0.20;;;12.80;99.90;;;;;;5051194;28;20049;-72
2022/06/05 06:01:36;;;;;;;1.13;0.40;;;12.70;99.90;;;;;;5050255;28;20032;-71
2022/06/05 06:04:04;;;;;;;0.68;0.50;;;12.70;99.90;;;;;;5049973;28;20055;-77
2022/06/05 06:06:36;;;;;;;1.17;0.32;;;12.60;99.90;;;;;;5049274;28;20618;-77
2022/06/05 06:09:04;;;;;;;0.40;0.30;;;12.60;99.90;;;;;;5048623;28;20033;-72
2022/06/05 06:11:33;;;;;;;0.47;0.32;;;12.60;99.90;;;;;;5050324;28;20043;-72
2022/06/05 06:14:00;;;;;;;0.75;0.45;;;12.60;99.90;;;;;;5051391;28;20470;-75
2022/06/05 06:16:28;;;;;;;0.60;0.40;;;12.50;99.90;;;;;;5049480;28;20035;-75
2022/06/05 06:18:56;;;;;;;0.75;0.30;;;12.50;99.90;;;;;;5046826;28;20021;-72
2022/06/05 06:21:25;;;;;;;0.60;0.45;;;12.50;99.90;;;;;;5050748;28;20370;-76
2022/06/05 06:23:52;;;;;;;3.38;0.40;;;12.50;99.90;;;;;;5048321;28;20405;-73
2022/06/05 06:26:20;;;;;;;0.43;0.40;;;12.40;99.90;;;;;;5051260;28;20020;-73
2022/06/05 06:28:47;;;;;;;0.68;0.30;;;12.50;99.90;;;;;;5053646;28;20090;-74
2022/06/05 06:31:19;;;;;;;0.38;0.25;;;12.40;99.90;;;;;;5054770;28;20512;-72
2022/06/05 06:33:48;;;;;;;1.00;0.40;;;12.40;99.90;;;;;;5053385;28;20025;-75
2022/06/05 06:36:18;;;;;;;1.45;0.32;;;12.30;99.90;;;;;;5052408;28;20013;-75
2022/06/05 06:38:45;;;;;;;0.57;0.30;;;12.30;99.90;;;;;;5056022;28;20095;-73
2022/06/05 06:41:16;;;;;;;0.40;0.30;;;12.30;99.90;;;;;;5054245;28;20013;-75
2022/06/05 06:43:45;;;;;;;0.52;0.30;;;12.20;99.90;;;;;;5055534;28;20029;-75
2022/06/05 06:46:13;;;;;;;0.55;0.40;;;12.20;99.90;;;;;;5052926;28;20529;-71
2022/06/05 06:48:41;;;;;;;0.30;0.22;;;12.20;99.90;;;;;;5053571;28;20500;-73
2022/06/05 06:51:10;;;;;;;1.40;0.70;;;12.20;99.90;;;;;;5051686;28;20064;-71
2022/06/05 06:53:39;;;;;;;0.80;0.70;;;12.10;99.90;;;;;;5054262;28;20025;-76
2022/06/05 06:56:18;;;;;;;0.88;0.32;;;12.10;99.90;;;;;;5053436;28;20467;-72
2022/06/05 06:58:46;;;;;;;1.50;0.43;;;12.10;99.90;;;;;;5054095;28;20025;-77
2022/06/05 07:01:14;;;;;;;0.50;0.50;;;12.00;99.90;;;;;;5051885;28;20076;-73
2022/06/05 07:03:42;;;;;;;1.08;0.47;;;12.00;99.90;;;;;;5054688;28;20039;-70
2022/06/05 07:06:12;;;;;;;0.70;0.50;;;12.00;99.90;;;;;;5054725;28;20009;-72
2022/06/05 07:08:41;;;;;;;1.45;0.40;;;12.00;99.90;;;;;;5052605;28;20500;-71
2022/06/05 07:11:11;;;;;;;0.82;0.40;;;12.00;99.90;;;;;;5050329;28;20119;-71
2022/06/05 07:13:38;;;;;;;0.73;0.47;;;11.90;99.90;;;;;;5053200;28;20393;-72
2022/06/05 07:16:07;;;;;;;1.00;0.70;;;11.90;99.90;;;;;;5052115;28;20067;-76
2022/06/05 07:18:35;;;;;;;1.80;0.60;;;11.90;99.90;;;;;;5053973;28;20033;-73
2022/06/05 07:21:16;;;;;;;1.05;0.50;;;11.80;99.90;;;;;;5053704;28;20371;-77
2022/06/05 07:23:43;;;;;;;1.50;0.38;;;11.80;99.90;;;;;;5054551;28;20025;-75
2022/06/05 07:26:12;;;;;;;1.23;0.45;;;11.80;99.90;;;;;;5049620;28;20036;-72
2022/06/05 07:28:40;;;;;;;0.35;0.35;;;11.70;99.90;;;;;;5052896;28;20055;-72
2022/06/05 07:31:09;;;;;;;0.80;0.50;;;11.70;99.90;;;;;;5051335;28;20389;-72
2022/06/05 07:33:38;;;;;;;0.70;0.40;;;11.70;99.90;;;;;;5051116;28;20398;-77
2022/06/05 07:36:09;;;;;;;0.65;0.57;;;11.60;99.90;;;;;;5052779;28;20025;-72
2022/06/05 07:38:37;;;;;;;0.47;0.47;;;11.60;99.90;;;;;;5051291;28;20033;-76
2022/06/05 07:41:07;;;;;;;1.15;0.43;;;11.60;99.90;;;;;;5054402;28;20017;-76
2022/06/05 07:43:34;;;;;;;1.70;0.70;;;11.50;99.90;;;;;;5049493;28;20036;-72
2022/06/05 07:46:05;;;;;;;4.07;0.50;;;11.50;99.90;;;;;;5052187;28;20155;-76
2022/06/05 07:48:33;;;;;;;1.17;0.68;;;11.50;99.90;;;;;;5052464;28;20082;-72
2022/06/05 07:56:36;;;;;;;0.88;0.60;;;11.40;99.90;;;;;;5051959;28;20440;-72
2022/06/05 07:59:03;;;;;;;1.20;0.55;;;11.40;99.90;;;;;;5052926;28;20025;-72
2022/06/05 08:01:31;;;;;;;0.82;0.60;;;11.40;99.90;;;;;;5052716;28;20051;-72
2022/06/05 08:03:58;;;;;;;1.60;0.60;;;11.40;99.90;;;;;;5051097;28;20037;-77
2022/06/05 08:06:25;;;;;;;1.50;0.57;;;11.40;99.90;;;;;;5052225;28;20541;-72
2022/06/05 08:08:53;;;;;;;0.75;0.47;;;11.30;99.90;;;;;;5052873;28;20021;-73
2022/06/05 08:11:20;;;;;;;1.45;0.40;;;11.30;99.90;;;;;;5051358;28;20026;-72
2022/06/05 08:13:48;;;;;;;0.80;0.40;;;11.30;99.90;;;;;;5050353;28;20486;-71
2022/06/05 08:16:15;;;;;;;1.13;0.50;;;11.30;99.90;;;;;;5051715;28;20044;-72
2022/06/05 08:18:42;;;;;;;1.67;0.80;;;11.20;99.90;;;;;;5051551;28;20017;-70
2022/06/05 08:21:11;;;;;;;0.30;0.30;;;11.20;99.90;;;;;;5052511;28;20025;-77
2022/06/05 08:23:39;;;;;;;0.52;0.40;;;11.20;99.90;;;;;;5051806;28;20509;-71
2022/06/05 08:26:06;;;;;;;0.30;0.30;;;11.20;99.90;;;;;;5052075;28;20024;-77
2022/06/05 08:28:34;;;;;;;0.50;0.40;;;11.20;99.90;;;;;;5050878;28;20021;-78
2022/06/05 08:31:01;;;;;;;0.85;0.50;;;11.10;99.90;;;;;;5051924;28;20492;-71
2022/06/05 08:33:29;;;;;;;0.40;0.30;;;11.10;99.90;;;;;;5051168;28;20033;-73
2022/06/05 08:35:56;;;;;;;0.90;0.45;;;11.10;99.90;;;;;;5052818;28;20024;-74
2022/06/05 08:41:39;;;;;;;0.70;0.45;;;11.10;99.90;;;;;;5051265;28;20059;-72
2022/06/05 08:44:19;;;;;;;0.40;0.40;;;11.00;99.90;;;;;;5050819;28;20123;-72
2022/06/05 08:46:52;;;;;;;0.75;0.40;;;11.00;99.90;;;;;;5053331;28;20017;-72
2022/06/05 08:49:30;;;;;;;0.47;0.40;;;11.00;99.90;;;;;;5050547;28;20052;-79
2022/06/05 08:52:27;;;;;;;0.95;0.40;;;11.00;99.90;;;;;;5050556;28;20013;-78
2022/06/05 08:55:23;;;;;;;1.38;0.80;;;11.00;99.90;;;;;;5052753;28;20021;-78
2022/06/05 08:58:14;;;;;;;0.30;0.30;;;11.00;99.90;;;;;;5049989;28;20024;-78
2022/06/05 09:00:57;;;;;;;1.98;0.47;;;10.90;99.90;;;;;;5052232;28;20022;-72
2022/06/05 09:03:56;;;;;;;0.80;0.57;;;10.90;99.90;;;;;;5051909;28;20037;-73
2022/06/05 09:06:40;;;;;;;1.55;0.50;;;10.80;99.90;;;;;;5049694;28;20021;-73
2022/06/05 09:09:35;;;;;;;0.85;0.40;;;10.80;99.90;;;;;;5048950;28;20031;-72
2022/06/05 09:12:14;;;;;;;0.75;0.50;;;10.90;99.90;;;;;;5045059;28;20417;-72
2022/06/05 09:14:55;;;;;;;1.15;0.70;;;10.90;99.90;;;;;;5050164;28;20024;-78
2022/06/05 09:17:24;;;;;;;0.52;0.40;;;10.80;99.90;;;;;;5050574;28;20100;-77
2022/06/05 09:19:54;;;;;;;0.77;0.50;;;10.80;99.90;;;;;;5049702;28;20067;-79
2022/06/05 09:22:21;;;;;;;0.20;0.20;;;10.80;99.90;;;;;;5051052;28;20013;-71
2022/06/05 09:24:55;;;;;;;0.50;0.40;;;10.80;99.90;;;;;;5048734;28;20033;-72
2022/06/05 09:27:52;;;;;;;1.00;0.50;;;10.80;99.90;;;;;;5050907;28;20052;-72
2022/06/05 09:30:25;;;;;;;2.05;0.70;;;10.70;99.90;;;;;;5049340;28;20351;-73
2022/06/05 09:33:14;;;;;;;1.13;0.52;;;10.70;99.90;;;;;;5050742;28;20021;-72
2022/06/05 09:35:55;;;;;;;1.48;0.63;;;10.70;99.90;;;;;;5050386;28;20066;-75
2022/06/05 09:38:48;;;;;;;1.55;0.73;;;10.70;99.90;;;;;;5047839;28;20577;-72
2022/06/05 09:41:15;;;;;;;0.50;0.40;;;10.60;99.90;;;;;;5049246;28;20025;-72
2022/06/05 09:43:56;;;;;;;0.57;0.40;;;10.60;99.90;;;;;;5050209;28;20515;-72
2022/06/05 09:46:59;;;;;;;0.50;0.40;;;10.60;99.90;;;;;;5052362;28;20025;-78
2022/06/05 09:49:37;;;;;;;0.70;0.50;;;10.60;99.90;;;;;;5049820;28;20029;-79
2022/06/05 09:52:11;;;;;;;0.95;0.68;;;10.50;99.90;;;;;;5048563;28;20017;-79
2022/06/05 09:54:50;;;;;;;0.68;0.55;;;10.50;99.90;;;;;;5050874;28;20104;-77
2022/06/05 10:00:47;;;;;;;1.10;0.55;;;10.50;99.90;;;;;;5050721;28;20237;-79
2022/06/05 10:03:25;;;;;;;0.65;0.40;;;10.50;99.90;;;;;;5052778;28;20087;-79
2022/06/05 10:06:17;;;;;;;0.85;0.40;;;10.50;99.90;;;;;;5054912;28;20435;-78
2022/06/05 10:08:53;;;;;;;1.70;0.50;;;10.50;99.90;;;;;;5056348;28;20082;-78
2022/06/05 10:11:42;;;;;;;0.60;0.60;;;10.40;99.90;;;;;;5052232;28;20493;-78
2022/06/05 10:14:41;;;;;;;0.57;0.45;;;10.40;99.90;;;;;;5055049;28;20029;-71
2022/06/05 10:17:40;;;;;;;1.02;0.50;;;10.40;99.90;;;;;;5047868;28;20029;-72
2022/06/05 10:20:29;;;;;;;0.60;0.40;;;10.40;99.90;;;;;;5055363;28;20021;-72
2022/06/05 10:22:59;;;;;;;0.70;0.40;;;10.40;99.90;;;;;;5053362;28;20031;-76
2022/06/05 10:25:44;;;;;;;1.02;0.50;;;10.40;99.90;;;;;;5054058;28;20028;-78
2022/06/05 10:28:21;;;;;;;0.60;0.50;;;10.40;99.90;;;;;;5054163;28;20036;-76
2022/06/05 10:31:09;;;;;;;1.05;0.70;;;10.40;99.90;;;;;;5053952;28;20029;-71
2022/06/05 10:34:24;;;;;;;0.43;0.40;;;10.40;99.90;;;;;;5052944;28;20462;-72
2022/06/05 10:37:03;;;;;;;0.45;0.40;;;10.40;99.90;;;;;;5030004;28;20090;-73
2022/06/05 10:39:50;;;;;;;0.30;0.30;;;10.30;99.90;;;;;;5053398;28;20153;-73
2022/06/05 10:42:39;;;;;;;1.13;0.50;;;10.30;99.90;;;;;;5053879;28;20021;-72
2022/06/05 10:45:18;;;;;;;1.73;0.50;;;10.30;99.90;;;;;;5053154;28;20029;-77
2022/06/05 10:47:57;;;;;;;0.68;0.35;;;10.30;99.90;;;;;;5053035;28;20067;-79
2022/06/05 10:50:37;;;;;;;0.82;0.40;;;10.20;99.90;;;;;;5053809;28;20017;-73
2022/06/05 10:53:13;;;;;;;0.93;0.50;;;10.20;99.90;;;;;;5053023;28;20028;-72
2022/06/05 10:56:18;;;;;;;0.40;0.40;;;10.20;99.90;;;;;;5051242;28;20020;-78
2022/06/05 10:58:57;;;;;;;0.50;0.40;;;10.20;99.90;;;;;;5048880;28;20037;-72
2022/06/05 11:01:56;;;;;;;1.20;0.38;;;10.10;99.90;;;;;;5052800;28;20021;-72
2022/06/05 11:04:32;;;;;;;0.50;0.40;;;10.10;99.90;;;;;;5053145;28;20024;-72
2022/06/05 11:07:16;;;;;;;0.68;0.50;;;10.10;99.90;;;;;;5055081;28;20021;-72
2022/06/05 11:13:39;;;;;;;0.63;0.45;;;10.10;99.90;;;;;;5054180;28;20104;-78
2022/06/05 11:13:42;;;;;;;0.47;0.40;;;10.00;99.90;;;;;;5028666;28;20549;-72
2022/06/05 11:16:31;;;;;;;0.57;0.50;;;10.00;99.90;;;;;;5051418;28;20029;-72
2022/06/05 11:19:04;;;;;;;0.52;0.40;;;10.00;99.90;;;;;;5053020;28;20025;-71
2022/06/05 11:21:33;;;;;;;0.88;0.40;;;10.00;99.90;;;;;;5053541;28;20013;-72
2022/06/05 11:24:01;;;;;;;0.30;0.30;;;10.00;99.90;;;;;;5054081;28;20500;-78
2022/06/05 11:26:47;;;;;;;0.95;0.40;;;10.00;99.90;;;;;;5053753;28;20033;-71
2022/06/05 11:29:39;;;;;;;0.50;0.50;;;9.90;99.90;;;;;;5054033;28;20029;-71
2022/06/05 11:32:28;;;;;;;0.55;0.50;;;10.00;99.90;;;;;;5051988;28;20044;-78
2022/06/05 11:35:10;;;;;;;0.57;0.55;;;9.90;99.90;;;;;;5050097;28;20021;-72
2022/06/05 11:38:01;;;;;;;0.55;0.52;;;9.90;99.90;;;;;;5052107;28;20128;-72
2022/06/05 11:40:35;;;;;;;1.42;0.50;;;9.90;99.90;;;;;;5053108;28;20032;-72
2022/06/05 11:43:29;;;;;;;0.80;0.50;;;9.80;99.90;;;;;;5052879;28;20036;-75
2022/06/05 11:46:25;;;;;;;0.52;0.47;;;9.80;99.90;;;;;;5050903;28;20498;-76
2022/06/05 11:49:13;;;;;;;1.23;0.50;;;9.80;99.90;;;;;;5051557;28;20013;-72
2022/06/05 11:51:47;;;;;;;1.05;0.50;;;9.80;99.90;;;;;;5051145;28;20036;-74
2022/06/05 11:54:20;;;;;;;0.60;0.32;;;9.80;99.90;;;;;;5050254;28;20025;-76
2022/06/05 11:56:56;;;;;;;0.80;0.55;;;9.80;99.90;;;;;;5052243;28;20556;-76
2022/06/05 12:00:07;;;;;;;0.80;0.50;;;9.80;99.90;;;;;;5052071;28;20474;-72
2022/06/05 12:02:59;;;;;;;1.70;0.40;;;9.80;99.90;;;;;;5027865;28;20050;-76
2022/06/05 12:05:49;;;;;;;1.30;0.55;;;9.80;99.90;;;;;;5030211;28;20057;-79
2022/06/05 12:08:22;;;;;;;1.55;0.52;;;9.70;99.90;;;;;;5049467;28;20056;-78
2022/06/05 12:10:59;;;;;;;0.73;0.30;;;9.70;99.90;;;;;;5052716;28;20359;-78
2022/06/05 12:13:30;;;;;;;0.95;0.50;;;9.70;99.90;;;;;;5053554;28;20017;-78
2022/06/05 12:16:09;;;;;;;0.52;0.50;;;9.70;99.90;;;;;;5049308;28;20021;-77
2022/06/05 12:19:15;;;;;;;1.17;0.40;;;9.70;99.90;;;;;;5051928;28;20032;-75
2022/06/05 12:22:14;;;;;;;0.70;0.55;;;9.70;99.90;;;;;;5051701;28;20052;-70
2022/06/05 12:24:57;;;;;;;0.30;0.30;;;9.70;99.90;;;;;;5043469;28;20043;-78
2022/06/05 12:27:24;;;;;;;0.70;0.60;;;9.70;99.90;;;;;;5052756;28;20036;-78
2022/06/05 12:30:12;;;;;;;0.65;0.40;;;9.60;99.90;;;;;;5051105;28;20044;-78
2022/06/05 12:33:05;;;;;;;0.68;0.50;;;9.60;99.90;;;;;;5046224;28;20041;-78
2022/06/05 12:35:39;;;;;;;0.70;0.43;;;9.60;99.90;;;;;;5053117;28;20096;-78
2022/06/05 12:38:31;;;;;;;1.00;0.40;;;9.60;99.90;;;;;;5050826;28;20152;-74
2022/06/05 12:41:40;;;;;;;0.73;0.52;;;9.60;99.90;;;;;;5052889;28;20032;-78
2022/06/05 12:44:23;;;;;;;1.05;0.63;;;9.60;99.90;;;;;;4990139;28;20048;-72
2022/06/05 12:47:22;;;;;;;2.78;0.63;;;9.50;99.90;;;;;;5053336;28;20537;-71
2022/06/05 12:49:56;;;;;;;0.40;0.38;;;9.50;99.90;;;;;;5053113;28;20096;-78
2022/06/05 12:52:29;;;;;;;1.08;0.60;;;9.60;99.90;;;;;;5052033;28;20108;-78
2022/06/05 12:55:22;;;;;;;0.90;0.50;;;9.60;99.90;;;;;;5052084;28;20021;-71
2022/06/05 12:58:00;;;;;;;4.50;0.68;;;9.60;99.90;;;;;;5046843;28;20044;-70
2022/06/05 13:00:36;;;;;;;1.05;0.60;;;9.60;99.90;;;;;;5052439;28;20013;-75
2022/06/05 13:03:35;;;;;;;1.30;0.47;;;9.60;99.90;;;;;;5051316;28;20374;-76
2022/06/05 13:06:27;;;;;;;1.25;0.60;;;9.60;99.90;;;;;;5049691;28;20389;-79
2022/06/05 13:09:06;;;;;;;0.45;0.32;;;9.60;99.90;;;;;;5052697;28;20084;-69
2022/06/05 13:11:43;;;;;;;0.73;0.40;;;9.60;99.90;;;;;;5053272;28;20580;-79
2022/06/05 13:14:32;;;;;;;0.47;0.45;;;9.60;99.90;;;;;;5052177;28;20430;-77
2022/06/05 13:17:24;;;;;;;0.63;0.30;;;9.60;99.90;;;;;;5053138;28;20056;-75
2022/06/05 13:20:16;;;;;;;0.30;0.30;;;9.60;99.90;;;;;;5052195;28;20009;-78
2022/06/05 13:23:08;;;;;;;0.40;0.40;;;9.60;99.90;;;;;;5051046;28;20021;-77
2022/06/05 13:26:19;;;;;;;0.40;0.32;;;9.60;99.90;;;;;;5052586;28;20512;-74
2022/06/05 13:28:52;;;;;;;0.57;0.43;;;9.60;99.90;;;;;;4989874;28;20034;-70
2022/06/05 13:31:39;;;;;;;0.52;0.40;;;9.60;99.90;;;;;;5040809;28;20432;-78
2022/06/05 13:34:16;;;;;;;;;;;9.60;99.90;;;;;;5051704;28;20512;-78
2022/06/05 13:36:49;;;;;;;0.40;0.40;;;9.60;99.90;;;;;;5050267;28;20424;-78
2022/06/05 13:39:33;;;;;;;0.20;0.20;;;9.50;99.90;;;;;;5053832;28;20037;-80
2022/06/05 13:42:18;;;;;;;0.43;0.28;;;9.60;99.90;;;;;;5053582;28;20029;-77
2022/06/05 13:44:52;;;;;;;0.40;0.38;;;9.60;99.90;;;;;;5053188;28;20449;-71
2022/06/05 13:47:45;;;;;;;0.38;0.38;;;9.50;99.90;;;;;;5053431;28;20029;-77
2022/06/05 13:50:47;;;;;;;0.50;0.40;;;9.60;99.90;;;;;;5053483;28;20035;-69
2022/06/05 13:53:22;;;;;;;0.60;0.30;;;9.50;99.90;;;;;;5053117;28;20033;-78
2022/06/05 13:56:15;;;;;;;0.60;0.40;;;9.50;99.90;;;;;;5053283;28;20390;-74
2022/06/05 13:59:10;;;;;;;0.38;0.38;;;9.50;99.90;;;;;;5053335;28;20082;-70